Back to Top

Current Local METAR Station Weather Reports...

Local METAR Reports

Local METAR Reports

 

EGNJ - Humberside, United Kingdom
Distance from station: ESE 12mi, 20km
Updated: Tue, 21-Sep-2021 3:20pm BST
Clear
Clear
 Wind from W
Wind: W 8 mph , 13 km/h
Temperature: 21°C
Dew Point: 9°C
Humidity: 46%
Barometer: 1029 hPa
Summary: Clear
Visibility: greater than 7 miles , 10 km
2021/09/21 14:20 EGNJ 211420Z 28007KT 230V310 CAVOK 21/09 Q1029
EGXV - Leconfield (aut), United Kingdom
Distance from station: NNE 16mi, 26km
Updated: Tue, 21-Sep-2021 2:50pm BST
Clear
Clear
 Wind from WSW
Wind: WSW 9 mph , 15 km/h
Temperature: 20°C
Dew Point: 9°C
Humidity: 49%
Barometer: 1028 hPa
Clouds: Clear
Visibility: 6 miles , 10 km
2021/09/21 13:50 EGXV 211350Z AUTO 25008KT 9999 NCD 20/09 Q1028
 
EGCN - Doncaster Sheffi, United Kingdom
Distance from station: SW 20mi, 32km
Updated: Tue, 21-Sep-2021 3:20pm BST
Clear
Clear
 Wind from WNW
Wind: WNW 8 mph , 13 km/h
Temperature: 20°C
Dew Point: 11°C
Humidity: 56%
Barometer: 1030 hPa
Summary: Clear
Visibility: greater than 7 miles , 10 km
2021/09/21 14:20 EGCN 211420Z 29007KT CAVOK 20/11 Q1030
EGXP - Scampton Raf, United Kingdom
Distance from station: S 25mi, 39km
Updated: Tue, 21-Sep-2021 2:50pm BST
Clear
Clear
 Wind from W
Wind: W 8 mph , 13 km/h
Temperature: 21°C
Dew Point: 10°C
Humidity: 50%
Barometer: 1029 hPa
Summary: Clear
Visibility: greater than 7 miles , 10 km
2021/09/21 13:50 EGXP 211350Z 27007KT CAVOK 21/10 Q1029
 
EGXW - Waddington Raf, United Kingdom
Distance from station: S 33mi, 53km
Updated: Tue, 21-Sep-2021 2:50pm BST
Clear
Clear
 Wind from NW
Wind: NW 7 mph , 11 km/h
Temperature: 20°C
Dew Point: 8°C
Humidity: 46%
Barometer: 1031 hPa
Summary: Clear
Visibility: greater than 7 miles , 10 km
2021/09/21 13:50 EGXW 211350Z 31006KT CAVOK 20/08 Q1031 NOSIG RMK BLU BLU
EGXS - Donna Nook Raf, United Kingdom
Distance from station: ESE 33mi, 54km
Updated: Tue, 21-Sep-2021 2:50pm BST
Clear
Clear
 Wind from E
Wind: E 7 mph , 11 km/h
Temperature: 18°C
Dew Point: 13°C
Humidity: 73%
Barometer: 1029 hPa
Summary: Clear
Visibility: greater than 7 miles , 10 km
2021/09/21 13:50 EGXS 211350Z 09006KT CAVOK 18/13 Q1029 BLU
 
EGXU - Linton-On-Ouse R, United Kingdom
Distance from station: NW 38mi, 61km
Updated: Wed, 01-Sep-2021 10:50am BST
NOT Current
Overcast
Overcast
 Wind from NNW
Wind: NNW 10 mph , 17 km/h
Temperature: 15°C
Dew Point: 13°C
Humidity: 88%
Barometer: 1033 hPa
Clouds: Overcast
Visibility: 6 miles , 10 km
Cloud details: Overcast 975 m
2021/09/01 09:50 EGXU 010950Z AUTO 34009KT 9999 OVC032/// 15/13 Q1033
EGXC - Coningsby Raf, United Kingdom
Distance from station: SSE 42mi, 68km
Updated: Tue, 21-Sep-2021 3:20pm BST
Mostly Cloudy
Mostly Cloudy
 Wind from WNW
Wind: WNW 8 mph , 13 km/h
Temperature: 21°C
Dew Point: 10°C
Humidity: 50%
Barometer: 1029 hPa
Clouds: Mostly Cloudy
Visibility: 6 miles , 10 km
Cloud details: Few Clouds 1219 m
Mostly Cloudy 7620 m
2021/09/21 14:20 EGXC 211420Z 29007KT 9999 FEW040 BKN250 21/10 Q1029 NOSIG RMK BLU BLU
 
EGYD - Cranwell Raf, United Kingdom
Distance from station: S 43mi, 69km
Updated: Tue, 21-Sep-2021 3:20pm BST
Clear
Clear
 Wind from W
Wind: W 6 mph , 9 km/h
Temperature: 21°C
Dew Point: 10°C
Humidity: 50%
Barometer: 1029 hPa
Summary: Clear
Visibility: greater than 7 miles , 10 km
2021/09/21 14:20 EGYD 211420Z 26005KT CAVOK 21/10 Q1029 NOSIG RMK BLU BLU
EGNM - Leeds And Bradfo, United Kingdom
Distance from station: WNW 44mi, 71km
Updated: Tue, 21-Sep-2021 3:20pm BST
Clear
Clear
 Wind from W
Wind: W 13 mph , 20 km/h
Temperature: 18°C
Dew Point: 10°C
Humidity: 60%
Barometer: 1029 hPa
Summary: Clear
Visibility: greater than 7 miles , 10 km
2021/09/21 14:20 EGNM 211420Z 27011KT CAVOK 18/10 Q1029
 
EGXZ - Topcliffe Raf, United Kingdom
Distance from station: NW 49mi, 79km
Updated: Tue, 21-Sep-2021 2:50pm BST
Clear
Clear
 Wind from SW
Wind: SW 5 mph , 7 km/h
Temperature: 21°C
Dew Point: 8°C
Humidity: 43%
Barometer: 1028 hPa
Clouds: Clear
Visibility: 6 miles , 10 km
2021/09/21 13:50 EGXZ 211350Z AUTO 22004KT 9999 NCD 21/08 Q1028
EGXE - Leeming Raf, United Kingdom
Distance from station: NW 57mi, 92km
Updated: Tue, 21-Sep-2021 3:20pm BST
Clear
Clear
 Wind from WSW
Wind: WSW 10 mph , 17 km/h
Temperature: 21°C
Dew Point: 6°C
Humidity: 38%
Barometer: 1028 hPa
Summary: Clear
Visibility: greater than 7 miles , 10 km
2021/09/21 14:20 EGXE 211420Z 25009KT CAVOK 21/06 Q1028 NOSIG RMK BLU BLU
 
EGYH - Holbeach (aut), United Kingdom
Distance from station: SSE 63mi, 101km
Updated: Tue, 21-Sep-2021 2:50pm BST
Clear
Clear
 Wind from WSW
Wind: WSW 9 mph , 15 km/h
Temperature: 20°C
Dew Point: 11°C
Humidity: 56%
Barometer: 1030 hPa
Summary: Clear
Visibility: greater than 7 miles , 10 km
2021/09/21 13:50 EGYH 211350Z 25008KT CAVOK 20/11 Q1030 RMK BLU
EGNX - East Midlands, United Kingdom
Distance from station: SSW 65mi, 104km
Updated: Tue, 21-Sep-2021 3:20pm BST
Clear
Clear
 Wind from W
Wind: W 9 mph , 15 km/h
Temperature: 19°C
Dew Point: 11°C
Humidity: 60%
Barometer: 1030 hPa
Summary: Clear
Visibility: greater than 7 miles , 10 km
2021/09/21 14:20 EGNX 211420Z 26008KT CAVOK 19/11 Q1030
 
EGNV - Tees-Side, United Kingdom
Distance from station: NNW 68mi, 109km
Updated: Tue, 21-Sep-2021 3:20pm BST
Clear
Clear
 Wind from W
Wind: W 9 mph , 15 km/h
Temperature: 20°C
Dew Point: 7°C
Humidity: 43%
Barometer: 1028 hPa
Summary: Clear
Visibility: greater than 7 miles , 10 km
2021/09/21 14:20 EGNV 211420Z 27008KT CAVOK 20/07 Q1028
EGCC - Manchester Intl, United Kingdom
Distance from station: WSW 71mi, 114km
Updated: Tue, 21-Sep-2021 3:20pm BST
Clear
Clear
 Wind from W
Wind: W 7 mph , 11 km/h
Temperature: 19°C
Dew Point: 11°C
Humidity: 60%
Barometer: 1030 hPa
Clouds: Clear
Visibility: 6 miles , 10 km
2021/09/21 14:20 EGCC 211420Z AUTO 27006KT 230V310 9999 NCD 19/11 Q1030 NOSIG

Metar display script from Saratoga-Weather.org

Data updates at regular intervals.